Time;durP1;ratioP1;P1;durP2;ratioP2;P2;SDS_P1;SDS_P2;PMS_P1;PMS_P2;Temp;Humidity;BMP_temperature;BMP_pressure;BME280_temperature;BME280_humidity;BME280_pressure;Samples;Min_cycle;Max_cycle;Signal;HPM_P1;HPM_P2
2024/03/14 00:00:48;;;;;;;10.90;10.70;;;20.40;57.40;;;;;;5002508;28;20445;-69
2024/03/14 00:03:16;;;;;;;11.20;10.90;;;20.40;57.40;;;;;;4989631;28;20458;-69
2024/03/14 00:05:43;;;;;;;11.17;10.77;;;20.40;57.50;;;;;;4987742;28;20806;-69
2024/03/14 00:08:09;;;;;;;10.70;10.50;;;20.40;57.50;;;;;;4994859;28;20962;-68
2024/03/14 00:10:37;;;;;;;11.20;10.93;;;20.30;57.50;;;;;;4995377;28;20437;-69
2024/03/14 00:13:04;;;;;;;11.00;10.80;;;20.30;57.50;;;;;;5016300;23;20892;-68
2024/03/14 00:15:31;;;;;;;11.50;11.10;;;20.30;57.50;;;;;;4942401;29;20509;-68
2024/03/14 00:17:58;;;;;;;10.80;10.53;;;20.30;57.60;;;;;;4932807;29;20448;-68
2024/03/14 00:20:25;;;;;;;11.90;11.57;;;20.30;57.60;;;;;;4935680;29;20509;-68
2024/03/14 00:22:52;;;;;;;11.23;10.93;;;20.30;57.60;;;;;;4931682;29;20456;-68
2024/03/14 00:25:18;;;;;;;11.63;11.03;;;20.30;57.60;;;;;;4939283;29;20484;-68
2024/03/14 00:27:46;;;;;;;11.27;10.97;;;20.30;57.70;;;;;;4954907;28;20441;-68
2024/03/14 00:30:15;;;;;;;10.57;10.30;;;20.20;57.70;;;;;;4939034;29;20475;-68
2024/03/14 00:32:42;;;;;;;10.87;10.47;;;20.20;57.80;;;;;;4944764;28;20468;-68
2024/03/14 00:35:11;;;;;;;10.43;10.03;;;20.20;57.80;;;;;;4938582;29;20942;-68
2024/03/14 00:37:38;;;;;;;9.70;9.50;;;20.20;57.90;;;;;;4939307;29;20445;-68
2024/03/14 00:40:08;;;;;;;10.63;10.37;;;20.20;57.90;;;;;;4938767;29;20918;-68
2024/03/14 00:42:35;;;;;;;10.87;10.57;;;20.20;58.00;;;;;;4954895;28;20471;-68
2024/03/14 00:45:03;;;;;;;11.30;10.63;;;20.20;58.10;;;;;;4954227;28;20848;-68
2024/03/14 00:47:30;;;;;;;11.73;11.43;;;20.20;58.10;;;;;;4954757;28;20975;-68
2024/03/14 00:49:57;;;;;;;11.80;11.50;;;20.20;58.10;;;;;;4938666;29;20445;-68
2024/03/14 00:52:26;;;;;;;12.23;11.80;;;20.20;58.70;;;;;;4943966;28;20468;-68
2024/03/14 00:54:53;;;;;;;11.60;11.30;;;20.20;58.20;;;;;;4937713;29;20521;-68
2024/03/14 00:57:20;;;;;;;11.50;11.10;;;20.20;58.30;;;;;;4938651;29;20473;-68
2024/03/14 00:59:47;;;;;;;11.90;11.60;;;20.20;58.30;;;;;;4938484;29;20471;-68
2024/03/14 01:02:15;;;;;;;13.53;13.10;;;20.10;58.30;;;;;;4954487;28;20451;-68
2024/03/14 01:04:43;;;;;;;12.53;12.13;;;20.20;58.30;;;;;;4969759;28;20512;-68
2024/03/14 01:07:10;;;;;;;11.10;10.80;;;20.10;58.30;;;;;;4954416;28;20453;-67
2024/03/14 01:09:37;;;;;;;12.23;11.83;;;20.10;58.30;;;;;;4954159;28;20503;-68
2024/03/14 01:12:04;;;;;;;12.00;11.70;;;20.10;58.30;;;;;;4940562;28;20985;-68
2024/03/14 01:14:31;;;;;;;12.37;12.03;;;20.10;58.40;;;;;;4956330;28;20456;-68
2024/03/14 01:16:58;;;;;;;10.77;10.47;;;20.10;58.40;;;;;;4938314;29;20445;-68
2024/03/14 01:19:26;;;;;;;11.83;11.53;;;20.10;58.50;;;;;;4938132;29;20959;-68
2024/03/14 01:21:52;;;;;;;11.93;11.43;;;20.10;58.50;;;;;;4930978;28;20445;-68
2024/03/14 01:24:19;;;;;;;11.13;10.83;;;20.10;58.50;;;;;;4969593;28;20855;-68
2024/03/14 01:26:48;;;;;;;12.00;11.60;;;20.10;58.50;;;;;;4937975;29;20452;-68
2024/03/14 01:29:16;;;;;;;11.30;11.00;;;20.10;58.50;;;;;;4953848;28;20964;-68
2024/03/14 01:31:43;;;;;;;10.90;10.60;;;20.10;58.50;;;;;;4959464;28;20518;-68
2024/03/14 01:34:10;;;;;;;11.40;11.10;;;20.10;58.50;;;;;;4939823;29;20460;-68
2024/03/14 01:36:38;;;;;;;11.43;11.13;;;20.10;58.50;;;;;;4953708;28;20449;-68
2024/03/14 01:39:06;;;;;;;11.40;11.10;;;20.10;58.50;;;;;;4937920;29;20811;-68
2024/03/14 01:41:32;;;;;;;11.57;11.20;;;20.10;58.50;;;;;;4938346;29;20444;-68
2024/03/14 01:43:59;;;;;;;11.63;11.17;;;20.10;58.50;;;;;;4937266;29;20564;-68
2024/03/14 01:46:28;;;;;;;11.03;10.73;;;20.00;58.50;;;;;;4937778;29;20440;-68
2024/03/14 01:48:55;;;;;;;11.50;11.20;;;20.00;58.50;;;;;;4930247;29;20504;-68
2024/03/14 01:51:22;;;;;;;11.77;11.47;;;20.00;58.60;;;;;;4955343;28;20965;-68
2024/03/14 01:53:50;;;;;;;10.93;10.73;;;20.00;58.60;;;;;;4937099;29;20469;-68
2024/03/14 01:56:17;;;;;;;11.00;10.70;;;20.00;58.60;;;;;;4953383;28;20445;-67
2024/03/14 01:58:44;;;;;;;12.23;11.93;;;20.00;58.60;;;;;;4953322;28;20456;-68
2024/03/14 02:01:12;;;;;;;10.57;10.27;;;20.00;58.70;;;;;;4937797;29;20448;-67
2024/03/14 02:03:40;;;;;;;10.70;10.40;;;20.00;58.70;;;;;;4953030;28;20472;-68
2024/03/14 02:06:08;;;;;;;10.70;10.40;;;20.00;58.70;;;;;;4937419;29;20923;-67
2024/03/14 02:08:35;;;;;;;10.60;10.30;;;20.00;58.70;;;;;;4937439;29;20444;-67
2024/03/14 02:11:03;;;;;;;11.23;10.83;;;20.00;58.70;;;;;;4958562;28;20813;-68
2024/03/14 02:13:30;;;;;;;11.00;10.70;;;20.00;58.70;;;;;;4955882;28;20554;-68
2024/03/14 02:15:57;;;;;;;10.60;10.40;;;20.00;58.80;;;;;;4936949;29;20467;-68
2024/03/14 02:18:24;;;;;;;10.80;10.50;;;20.00;58.70;;;;;;4937172;29;20967;-68
2024/03/14 02:20:51;;;;;;;10.90;10.60;;;20.00;58.70;;;;;;4938250;28;20445;-67
2024/03/14 02:23:18;;;;;;;10.70;10.50;;;20.00;58.70;;;;;;4936945;29;20465;-68
2024/03/14 02:25:45;;;;;;;10.87;10.57;;;20.00;58.80;;;;;;4936697;29;20857;-68
2024/03/14 02:28:13;;;;;;;11.27;10.80;;;20.00;58.80;;;;;;4952905;28;20445;-68
2024/03/14 02:30:40;;;;;;;11.10;10.80;;;20.00;58.80;;;;;;4952859;28;20448;-68
2024/03/14 02:33:07;;;;;;;10.70;10.40;;;20.00;58.80;;;;;;4952845;28;20859;-67
2024/03/14 02:35:34;;;;;;;10.80;10.60;;;20.00;58.90;;;;;;4952442;28;20448;-67
2024/03/14 02:38:01;;;;;;;11.23;10.93;;;20.00;58.80;;;;;;4943229;29;20455;-68
2024/03/14 02:40:29;;;;;;;10.77;10.47;;;20.00;58.90;;;;;;4936731;29;20449;-68
2024/03/14 02:42:56;;;;;;;10.17;9.97;;;20.00;58.90;;;;;;4925812;29;20524;-68
2024/03/14 02:45:22;;;;;;;10.30;10.10;;;20.00;58.90;;;;;;4968219;28;20477;-67
2024/03/14 02:47:50;;;;;;;11.10;10.80;;;20.00;58.90;;;;;;4940829;28;20440;-68
2024/03/14 02:50:18;;;;;;;10.67;10.47;;;19.90;58.80;;;;;;4936651;29;20504;-67
2024/03/14 02:52:46;;;;;;;10.30;10.10;;;19.90;58.90;;;;;;4936711;29;20842;-68
2024/03/14 02:55:13;;;;;;;10.30;10.10;;;19.90;58.90;;;;;;4952414;28;20440;-68
2024/03/14 02:57:41;;;;;;;11.03;10.77;;;19.90;58.90;;;;;;4952639;28;20455;-68
2024/03/14 03:00:15;;;;;;;10.50;10.30;;;19.90;58.90;;;;;;4952433;28;20477;-68
2024/03/14 03:02:43;;;;;;;11.20;10.90;;;19.90;58.90;;;;;;4952494;28;20905;-67
2024/03/14 03:05:11;;;;;;;10.43;10.23;;;19.90;58.90;;;;;;4936511;29;20590;-67
2024/03/14 03:07:38;;;;;;;10.97;10.57;;;19.90;59.00;;;;;;4940427;28;20513;-68
2024/03/14 03:10:06;;;;;;;10.60;10.30;;;19.90;59.00;;;;;;4936530;29;20448;-67
2024/03/14 03:12:38;;;;;;;10.27;9.97;;;19.90;59.00;;;;;;4936610;29;20495;-67
2024/03/14 03:15:06;;;;;;;11.73;11.43;;;19.90;59.10;;;;;;4937011;29;20816;-67
2024/03/14 03:17:33;;;;;;;11.03;10.83;;;19.90;59.00;;;;;;4953180;28;20449;-68
2024/03/14 03:20:09;;;;;;;10.50;10.30;;;19.90;59.00;;;;;;4956363;28;20862;-68
2024/03/14 03:23:05;;;;;;;13.60;13.30;;;19.90;59.10;;;;;;4956294;28;20502;-67
2024/03/14 03:25:22;;;;;;;12.70;12.40;;;19.90;59.10;;;;;;4942621;29;20480;-68
2024/03/14 03:27:49;;;;;;;14.30;13.90;;;19.90;59.10;;;;;;4943781;28;20538;-68
2024/03/14 03:30:14;;;;;;;13.93;13.53;;;19.90;59.10;;;;;;4940236;29;20212;-68
2024/03/14 03:32:44;;;;;;;11.33;11.03;;;19.90;59.10;;;;;;4940180;29;20468;-68
2024/03/14 03:35:11;;;;;;;11.00;10.70;;;19.90;59.10;;;;;;4955816;28;20225;-68
2024/03/14 03:37:38;;;;;;;11.97;11.67;;;19.90;59.10;;;;;;4956170;28;20456;-68
2024/03/14 03:40:06;;;;;;;11.30;11.00;;;19.90;59.10;;;;;;4956308;28;20939;-68
2024/03/14 03:42:33;;;;;;;11.10;10.80;;;19.80;59.00;;;;;;4955766;28;20585;-68
2024/03/14 03:44:59;;;;;;;10.80;10.60;;;19.80;59.00;;;;;;4939555;29;21024;-68
2024/03/14 03:47:26;;;;;;;10.27;10.07;;;19.80;59.00;;;;;;4955758;28;20445;-68
2024/03/14 03:49:55;;;;;;;12.20;11.80;;;19.90;59.10;;;;;;4955708;28;20210;-68
2024/03/14 03:52:22;;;;;;;9.70;9.50;;;19.80;59.00;;;;;;4940426;29;20538;-68
2024/03/14 03:54:47;;;;;;;10.93;10.63;;;19.80;59.00;;;;;;4945071;28;20440;-68
2024/03/14 03:57:14;;;;;;;11.10;10.73;;;19.80;59.00;;;;;;4939639;29;20441;-68
2024/03/14 03:59:41;;;;;;;10.10;9.90;;;19.80;59.00;;;;;;4939904;29;20205;-68
2024/03/14 04:02:09;;;;;;;11.17;10.87;;;19.80;59.10;;;;;;4939443;29;20437;-68
2024/03/14 04:04:36;;;;;;;11.87;11.47;;;19.80;59.10;;;;;;4955358;28;20484;-68
2024/03/14 04:07:03;;;;;;;12.63;12.33;;;19.80;59.60;;;;;;4955663;28;20544;-68
2024/03/14 04:09:29;;;;;;;12.20;11.80;;;19.80;59.10;;;;;;4955369;28;20476;-68
2024/03/14 04:11:57;;;;;;;12.40;12.10;;;19.80;59.10;;;;;;4955292;28;21141;-68
2024/03/14 04:14:23;;;;;;;12.10;11.80;;;19.80;59.20;;;;;;4942943;28;20456;-68
2024/03/14 04:16:50;;;;;;;11.90;11.60;;;19.80;59.20;;;;;;4956397;28;20527;-68
2024/03/14 04:19:16;;;;;;;11.90;11.60;;;19.80;59.20;;;;;;4939293;29;20201;-68
2024/03/14 04:21:43;;;;;;;12.33;11.83;;;19.80;59.10;;;;;;4939310;29;20441;-67
2024/03/14 04:24:10;;;;;;;11.87;11.57;;;19.80;59.20;;;;;;4955260;28;20959;-67
2024/03/14 04:26:38;;;;;;;12.57;12.17;;;19.80;59.30;;;;;;4971304;28;20940;-67
2024/03/14 04:29:06;;;;;;;12.20;11.83;;;19.80;59.40;;;;;;4969967;28;20444;-67
2024/03/14 04:31:33;;;;;;;12.70;12.30;;;19.80;59.40;;;;;;4970954;28;20449;-67
2024/03/14 04:34:00;;;;;;;12.20;11.80;;;19.80;59.40;;;;;;4971059;28;20464;-67
2024/03/14 04:36:28;;;;;;;12.40;12.10;;;19.80;59.40;;;;;;4971137;28;20441;-67
2024/03/14 04:38:54;;;;;;;12.37;12.07;;;19.80;59.40;;;;;;4970928;28;20451;-67
2024/03/14 04:41:21;;;;;;;12.40;12.10;;;19.80;59.50;;;;;;4970849;28;20449;-67
2024/03/14 04:43:48;;;;;;;12.00;11.60;;;19.80;59.40;;;;;;4970756;28;20461;-67
2024/03/14 04:46:16;;;;;;;12.87;12.37;;;19.80;59.40;;;;;;4988828;28;20489;-67
2024/03/14 04:48:43;;;;;;;12.30;12.00;;;19.80;59.40;;;;;;4974194;28;20443;-67
2024/03/14 04:51:11;;;;;;;12.37;12.07;;;19.80;59.40;;;;;;4974221;28;20479;-67
2024/03/14 04:53:37;;;;;;;12.80;12.40;;;19.80;59.40;;;;;;4973495;28;21047;-67
2024/03/14 04:56:05;;;;;;;13.20;12.70;;;19.80;59.30;;;;;;4973790;28;20447;-67
2024/03/14 04:58:32;;;;;;;12.30;12.00;;;19.80;59.40;;;;;;4973950;28;20451;-67
2024/03/14 05:00:58;;;;;;;13.60;13.20;;;19.80;59.50;;;;;;4973924;28;20925;-67
2024/03/14 05:03:27;;;;;;;12.43;12.13;;;19.80;59.50;;;;;;4973452;28;20463;-67
2024/03/14 05:05:56;;;;;;;12.80;12.50;;;19.80;59.50;;;;;;4973618;28;20484;-66
2024/03/14 05:08:23;;;;;;;12.97;12.67;;;19.80;59.40;;;;;;4973872;28;20530;-66
2024/03/14 05:10:50;;;;;;;12.70;12.40;;;19.80;59.50;;;;;;4973820;28;20443;-66
2024/03/14 05:13:19;;;;;;;13.03;12.73;;;19.80;59.70;;;;;;4972015;28;20844;-67
2024/03/14 05:15:46;;;;;;;13.70;13.30;;;19.80;59.70;;;;;;4973421;28;20866;-67
2024/03/14 05:18:13;;;;;;;13.70;13.30;;;19.80;59.70;;;;;;4973748;28;20451;-67
2024/03/14 05:20:40;;;;;;;13.10;12.80;;;19.80;59.70;;;;;;4973567;28;20444;-67
2024/03/14 05:23:09;;;;;;;13.90;13.57;;;19.80;59.70;;;;;;4968942;28;20555;-66
2024/03/14 05:25:36;;;;;;;13.93;13.53;;;19.80;59.70;;;;;;4969699;28;20484;-67
2024/03/14 05:28:06;;;;;;;14.30;13.90;;;19.80;59.60;;;;;;4970000;28;20873;-67
2024/03/14 05:30:33;;;;;;;14.90;14.30;;;19.80;59.70;;;;;;4969714;28;20884;-67
2024/03/14 05:33:00;;;;;;;14.00;13.60;;;19.80;59.70;;;;;;4970082;28;20476;-67
2024/03/14 05:35:27;;;;;;;14.50;14.10;;;19.80;59.80;;;;;;4969832;28;20447;-67
2024/03/14 05:37:54;;;;;;;13.63;13.23;;;19.80;59.80;;;;;;4969969;28;20859;-67
2024/03/14 05:40:21;;;;;;;14.17;13.77;;;19.80;59.80;;;;;;4969777;28;20798;-67
2024/03/14 05:42:48;;;;;;;13.60;13.30;;;19.80;59.80;;;;;;4984321;28;20463;-67
2024/03/14 05:45:16;;;;;;;14.90;14.40;;;19.80;59.70;;;;;;4972885;28;20488;-67
2024/03/14 05:47:43;;;;;;;13.90;13.50;;;19.80;59.60;;;;;;4973343;28;20449;-67
2024/03/14 05:50:10;;;;;;;16.73;15.93;;;19.80;59.40;;;;;;4973240;28;20448;-67
2024/03/14 05:52:38;;;;;;;17.60;15.10;;;19.80;59.30;;;;;;4972541;28;20501;-67
2024/03/14 05:55:05;;;;;;;15.30;14.60;;;19.80;60.50;;;;;;4972870;28;20857;-67
2024/03/14 05:57:32;;;;;;;18.03;16.33;;;19.90;62.80;;;;;;4973010;28;20451;-67
2024/03/14 05:59:59;;;;;;;20.37;18.10;;;19.90;64.60;;;;;;4967762;28;20437;-67
2024/03/14 06:02:26;;;;;;;18.67;16.77;;;19.90;65.80;;;;;;4969312;28;20469;-66
2024/03/14 06:04:54;;;;;;;19.97;17.70;;;19.90;66.50;;;;;;4969388;28;20451;-66
2024/03/14 06:07:21;;;;;;;20.63;19.00;;;19.90;67.90;;;;;;4969318;28;20499;-66
2024/03/14 06:09:49;;;;;;;21.33;18.20;;;19.90;70.00;;;;;;4972692;28;20833;-67
2024/03/14 06:12:16;;;;;;;19.50;17.70;;;19.90;70.80;;;;;;4972748;28;20894;-67
2024/03/14 06:14:43;;;;;;;21.47;18.67;;;20.00;71.60;;;;;;4972485;28;20943;-67
2024/03/14 06:17:10;;;;;;;20.93;17.17;;;20.00;72.20;;;;;;4972854;28;20435;-67
2024/03/14 06:19:37;;;;;;;20.10;18.30;;;20.00;72.90;;;;;;4963302;28;20491;-66
2024/03/14 06:22:05;;;;;;;21.30;17.60;;;20.00;72.40;;;;;;4969016;28;20445;-66
2024/03/14 06:24:32;;;;;;;27.33;17.80;;;20.00;72.80;;;;;;4968600;28;20448;-66
2024/03/14 06:27:00;;;;;;;31.37;17.70;;;20.00;72.60;;;;;;4968767;28;20488;-66
2024/03/14 06:29:26;;;;;;;25.20;18.50;;;20.00;72.60;;;;;;4968776;28;20444;-66
2024/03/14 06:31:54;;;;;;;20.17;18.63;;;20.00;72.50;;;;;;4968824;28;20441;-66
2024/03/14 06:34:20;;;;;;;20.07;18.03;;;20.00;72.20;;;;;;4968447;28;20464;-66
2024/03/14 06:36:47;;;;;;;21.33;19.30;;;20.00;72.00;;;;;;4968864;28;20544;-66
2024/03/14 06:39:17;;;;;;;18.23;16.90;;;20.00;71.90;;;;;;4968772;28;20445;-66
2024/03/14 06:41:44;;;;;;;19.40;18.10;;;20.00;72.40;;;;;;4968339;28;20875;-66
2024/03/14 06:44:12;;;;;;;19.60;18.07;;;20.00;71.60;;;;;;4968269;28;20453;-66
2024/03/14 06:46:39;;;;;;;19.77;17.80;;;20.00;71.30;;;;;;4968497;28;20524;-66
2024/03/14 06:49:12;;;;;;;20.87;18.90;;;20.00;71.20;;;;;;4968484;28;20441;-66
2024/03/14 06:51:39;;;;;;;20.93;18.83;;;20.00;71.10;;;;;;4967688;28;20444;-67
2024/03/14 06:54:06;;;;;;;18.90;17.20;;;20.00;70.90;;;;;;4967603;28;20457;-67
2024/03/14 06:56:32;;;;;;;21.07;18.83;;;20.00;70.60;;;;;;4968387;28;20471;-67
2024/03/14 06:59:00;;;;;;;20.27;18.73;;;20.00;70.40;;;;;;4968556;28;20821;-67
2024/03/14 07:01:27;;;;;;;19.93;18.50;;;20.00;70.10;;;;;;4968363;28;20445;-67
2024/03/14 07:03:54;;;;;;;19.93;18.40;;;20.00;69.80;;;;;;4968068;28;20536;-67
2024/03/14 07:06:23;;;;;;;19.37;17.77;;;20.00;69.60;;;;;;4968458;28;20519;-67
2024/03/14 07:08:56;;;;;;;19.37;17.97;;;20.00;69.40;;;;;;4968168;28;20444;-67
2024/03/14 07:11:25;;;;;;;20.77;19.00;;;20.00;69.10;;;;;;4967556;28;20503;-67
2024/03/14 07:13:54;;;;;;;18.53;17.27;;;20.00;69.00;;;;;;4967441;28;20473;-67
2024/03/14 07:16:21;;;;;;;19.27;18.00;;;20.00;68.80;;;;;;4968310;28;20437;-67
2024/03/14 07:18:48;;;;;;;18.53;17.13;;;20.00;68.60;;;;;;4968135;28;20444;-67
2024/03/14 07:21:16;;;;;;;18.30;16.70;;;20.00;68.40;;;;;;4968155;28;20437;-67
2024/03/14 07:23:47;;;;;;;18.97;17.40;;;20.00;68.10;;;;;;4967689;28;20974;-67
2024/03/14 07:26:17;;;;;;;18.47;16.90;;;20.00;67.90;;;;;;4967519;28;20480;-66
2024/03/14 07:28:45;;;;;;;19.17;17.77;;;20.00;67.70;;;;;;4967589;28;20894;-66
2024/03/14 07:31:14;;;;;;;19.43;18.10;;;20.00;67.50;;;;;;4967980;28;20453;-67
2024/03/14 07:33:41;;;;;;;18.13;17.13;;;20.00;67.10;;;;;;4967975;28;20523;-66
2024/03/14 07:36:08;;;;;;;17.87;16.67;;;20.00;67.00;;;;;;4968076;28;20972;-67
2024/03/14 07:38:35;;;;;;;16.50;15.60;;;20.00;66.70;;;;;;4968102;28;20444;-67
2024/03/14 07:41:02;;;;;;;17.60;16.90;;;20.00;66.50;;;;;;4968259;28;20870;-67
2024/03/14 07:43:29;;;;;;;18.00;16.90;;;19.90;66.20;;;;;;4968073;28;20568;-67
2024/03/14 07:45:57;;;;;;;18.93;17.43;;;20.00;66.00;;;;;;4967760;28;20982;-67
2024/03/14 07:48:24;;;;;;;16.60;16.00;;;20.00;65.80;;;;;;4967838;28;20436;-67
2024/03/14 07:50:51;;;;;;;17.90;16.50;;;20.00;65.60;;;;;;4967847;28;20455;-67
2024/03/14 07:53:19;;;;;;;16.90;16.17;;;20.00;65.40;;;;;;4967824;28;20519;-67
2024/03/14 07:55:46;;;;;;;18.87;17.60;;;20.00;65.20;;;;;;4967300;28;20867;-67
2024/03/14 07:58:13;;;;;;;17.50;16.50;;;20.00;65.10;;;;;;4967741;28;20787;-67
2024/03/14 08:00:40;;;;;;;16.40;15.50;;;20.00;64.90;;;;;;4968060;28;20459;-67
2024/03/14 08:03:08;;;;;;;17.90;16.87;;;20.00;64.70;;;;;;4967751;28;20997;-67
2024/03/14 08:05:37;;;;;;;17.20;16.40;;;20.00;64.60;;;;;;4971161;28;20448;-67
2024/03/14 08:08:04;;;;;;;17.53;16.33;;;20.00;64.40;;;;;;4971260;28;20572;-67
2024/03/14 08:10:31;;;;;;;16.80;16.10;;;20.00;64.40;;;;;;4971293;28;20943;-67
2024/03/14 08:12:58;;;;;;;17.67;16.97;;;20.00;64.20;;;;;;4971114;28;20472;-67
2024/03/14 08:15:35;;;;;;;16.90;16.03;;;20.00;64.10;;;;;;4971005;28;21043;-67
2024/03/14 08:18:04;;;;;;;17.87;16.90;;;20.00;64.00;;;;;;4970102;28;20531;-67
2024/03/14 08:20:36;;;;;;;17.17;16.33;;;20.00;63.80;;;;;;4970908;28;20536;-67
2024/03/14 08:23:04;;;;;;;18.37;17.40;;;20.00;63.70;;;;;;4970680;28;20465;-67
2024/03/14 08:25:32;;;;;;;17.37;16.63;;;20.00;63.70;;;;;;4970546;28;20449;-67
2024/03/14 08:27:59;;;;;;;17.07;16.20;;;20.00;63.50;;;;;;4970922;28;20479;-67
2024/03/14 08:30:27;;;;;;;16.77;16.07;;;20.00;63.40;;;;;;4970921;28;20433;-67
2024/03/14 08:32:55;;;;;;;17.20;16.40;;;20.00;63.30;;;;;;4970665;28;20841;-67
2024/03/14 08:35:23;;;;;;;16.97;16.27;;;20.00;63.20;;;;;;4970669;28;20444;-67
2024/03/14 08:37:49;;;;;;;18.27;17.40;;;20.00;63.10;;;;;;4970731;28;20439;-67
2024/03/14 08:40:16;;;;;;;17.70;16.80;;;20.00;63.00;;;;;;4970864;28;20527;-66
2024/03/14 08:42:45;;;;;;;17.70;17.00;;;20.00;62.90;;;;;;4970786;28;20465;-67
2024/03/14 08:45:13;;;;;;;17.10;16.30;;;20.00;62.80;;;;;;4970091;28;20930;-66
2024/03/14 08:47:40;;;;;;;17.33;16.40;;;20.00;62.60;;;;;;4970532;28;20487;-67
2024/03/14 08:50:09;;;;;;;16.67;15.77;;;20.00;62.60;;;;;;4970666;28;20448;-67
2024/03/14 08:52:37;;;;;;;16.50;15.80;;;20.00;62.50;;;;;;4970382;28;20560;-67
2024/03/14 08:55:23;;;;;;;15.80;15.20;;;20.00;62.40;;;;;;4970029;28;20441;-67
2024/03/14 08:57:50;;;;;;;17.10;16.30;;;20.00;62.30;;;;;;4968224;28;20454;-67
2024/03/14 09:00:17;;;;;;;16.53;15.83;;;20.00;62.20;;;;;;4970554;28;20444;-67
2024/03/14 09:02:44;;;;;;;18.20;17.30;;;20.00;62.10;;;;;;4970192;28;20516;-67
2024/03/14 09:05:14;;;;;;;17.93;17.13;;;20.00;62.00;;;;;;4970052;28;20468;-67
2024/03/14 09:07:41;;;;;;;17.77;16.70;;;20.00;61.90;;;;;;4970012;28;20558;-67
2024/03/14 09:10:15;;;;;;;17.30;16.57;;;20.00;61.80;;;;;;4970139;28;20858;-67
2024/03/14 09:12:43;;;;;;;16.70;16.03;;;20.00;61.80;;;;;;4969214;28;21016;-66
2024/03/14 09:15:11;;;;;;;17.10;16.40;;;20.00;61.60;;;;;;4969051;28;20476;-66
2024/03/14 09:17:38;;;;;;;17.47;16.20;;;20.00;61.60;;;;;;4969970;28;20444;-67
2024/03/14 09:20:08;;;;;;;16.73;15.73;;;20.00;61.50;;;;;;4970049;28;21042;-67
2024/03/14 09:22:36;;;;;;;16.87;15.97;;;20.00;61.40;;;;;;4969712;28;20476;-67
2024/03/14 09:25:03;;;;;;;17.77;17.00;;;20.00;61.40;;;;;;4969760;28;20487;-66
2024/03/14 09:27:32;;;;;;;17.43;16.67;;;20.00;61.30;;;;;;4970096;28;20484;-67
2024/03/14 09:29:59;;;;;;;16.23;15.50;;;20.00;61.20;;;;;;4969658;28;20449;-67
2024/03/14 09:32:29;;;;;;;16.20;15.53;;;19.90;61.10;;;;;;4970011;28;20487;-67
2024/03/14 09:34:58;;;;;;;16.63;15.63;;;20.00;61.10;;;;;;4969119;28;20880;-67
2024/03/14 09:37:25;;;;;;;15.83;15.13;;;20.00;61.10;;;;;;4969626;28;20531;-67
2024/03/14 09:39:51;;;;;;;16.27;15.67;;;20.00;61.00;;;;;;4969583;28;20965;-67
2024/03/14 09:42:20;;;;;;;16.43;15.70;;;20.00;60.90;;;;;;4969607;28;20495;-67
2024/03/14 09:44:48;;;;;;;15.73;15.17;;;20.00;60.80;;;;;;4969000;28;20451;-67
2024/03/14 09:47:15;;;;;;;17.50;16.60;;;20.00;60.70;;;;;;4969397;28;20488;-67
2024/03/14 09:49:43;;;;;;;16.73;16.13;;;20.00;60.70;;;;;;4969541;28;20792;-67
2024/03/14 09:52:10;;;;;;;16.00;15.50;;;20.00;60.50;;;;;;4969523;28;20459;-67
2024/03/14 09:54:38;;;;;;;15.63;15.03;;;20.00;60.50;;;;;;4969055;28;20504;-67
2024/03/14 09:57:05;;;;;;;16.63;15.93;;;20.00;60.40;;;;;;4969148;28;20531;-67
2024/03/14 09:59:32;;;;;;;16.70;15.73;;;20.00;60.30;;;;;;4969294;28;20470;-67
2024/03/14 10:01:59;;;;;;;16.10;15.30;;;20.00;60.40;;;;;;4969115;28;20453;-67
2024/03/14 10:04:26;;;;;;;16.97;16.37;;;20.00;60.20;;;;;;4968921;28;20471;-66
2024/03/14 10:06:53;;;;;;;16.30;15.77;;;20.00;60.20;;;;;;4969115;28;20508;-67
2024/03/14 10:09:22;;;;;;;15.97;15.37;;;20.00;60.10;;;;;;4969155;28;20449;-67
2024/03/14 10:11:50;;;;;;;15.93;15.33;;;20.00;60.00;;;;;;4968751;28;20500;-67
2024/03/14 10:14:21;;;;;;;16.40;15.80;;;20.00;60.00;;;;;;4968434;28;20473;-67
2024/03/14 10:16:49;;;;;;;16.03;15.53;;;20.00;60.00;;;;;;4968535;28;20441;-67
2024/03/14 10:19:16;;;;;;;16.70;15.90;;;20.00;59.90;;;;;;4968730;28;20441;-67
2024/03/14 10:21:43;;;;;;;17.07;16.47;;;20.00;59.90;;;;;;4969178;28;20452;-67
2024/03/14 10:24:11;;;;;;;16.03;15.43;;;20.00;59.90;;;;;;4968660;28;20901;-67
2024/03/14 10:26:39;;;;;;;16.80;16.13;;;20.00;59.90;;;;;;4968850;28;20448;-67
2024/03/14 10:29:09;;;;;;;16.30;15.70;;;20.00;59.80;;;;;;4968729;28;20452;-67
2024/03/14 10:31:37;;;;;;;17.93;17.00;;;20.00;59.80;;;;;;4968568;28;20451;-67
2024/03/14 10:34:05;;;;;;;15.30;14.90;;;20.00;59.80;;;;;;4968264;28;20522;-67
2024/03/14 10:36:31;;;;;;;15.93;15.43;;;20.00;59.70;;;;;;4968542;28;20543;-67
2024/03/14 10:38:59;;;;;;;15.70;15.20;;;20.00;59.70;;;;;;4968734;28;20448;-67
2024/03/14 10:41:27;;;;;;;17.40;16.50;;;20.00;59.60;;;;;;4968608;28;20455;-67
2024/03/14 10:43:55;;;;;;;16.57;15.90;;;20.00;59.60;;;;;;4968018;28;20460;-67
2024/03/14 10:46:24;;;;;;;16.20;15.60;;;20.00;59.60;;;;;;4968515;28;20444;-67
2024/03/14 10:48:50;;;;;;;15.70;15.23;;;20.00;59.60;;;;;;4968385;28;20542;-67
2024/03/14 10:51:17;;;;;;;15.93;15.40;;;20.00;59.60;;;;;;4968429;28;20890;-67
2024/03/14 10:53:45;;;;;;;16.03;15.30;;;20.10;59.60;;;;;;4968687;28;20461;-67
2024/03/14 10:56:13;;;;;;;15.73;15.03;;;20.10;59.60;;;;;;4968646;28;20441;-67
2024/03/14 10:58:41;;;;;;;16.20;15.50;;;20.10;59.50;;;;;;4968210;28;20441;-67
2024/03/14 11:01:10;;;;;;;15.63;15.10;;;20.00;59.40;;;;;;4968402;28;20437;-67
2024/03/14 11:03:38;;;;;;;16.87;16.27;;;20.10;59.50;;;;;;4967875;28;20974;-67
2024/03/14 11:06:05;;;;;;;15.37;14.77;;;20.10;59.40;;;;;;4967903;28;20445;-67
2024/03/14 11:08:37;;;;;;;16.07;15.57;;;20.10;59.40;;;;;;4968274;28;20481;-66
2024/03/14 11:11:04;;;;;;;16.30;15.60;;;20.10;59.40;;;;;;4967749;28;20449;-67
2024/03/14 11:13:31;;;;;;;16.87;16.27;;;20.10;59.40;;;;;;4968202;28;20476;-67
2024/03/14 11:15:58;;;;;;;16.13;15.20;;;20.10;59.30;;;;;;4968059;28;20496;-67
2024/03/14 11:18:27;;;;;;;15.50;15.00;;;20.10;59.30;;;;;;4968212;28;20809;-67
2024/03/14 11:20:54;;;;;;;15.97;15.47;;;20.10;59.30;;;;;;4968035;28;20452;-67
2024/03/14 11:23:22;;;;;;;15.87;15.37;;;20.10;59.30;;;;;;4968172;28;20492;-67
2024/03/14 11:25:52;;;;;;;15.90;15.40;;;20.10;59.20;;;;;;4967749;28;20445;-67
2024/03/14 11:28:19;;;;;;;15.43;14.93;;;20.10;59.20;;;;;;4967800;28;20507;-66
2024/03/14 11:30:51;;;;;;;15.80;15.30;;;20.10;59.20;;;;;;4968179;28;20449;-66
2024/03/14 11:33:18;;;;;;;15.80;15.30;;;20.10;59.20;;;;;;4967988;28;20474;-66
2024/03/14 11:35:47;;;;;;;15.80;15.30;;;20.10;59.10;;;;;;4967827;28;20476;-67
2024/03/14 11:38:28;;;;;;;15.90;15.40;;;20.10;59.10;;;;;;4968167;28;20499;-67
2024/03/14 11:40:55;;;;;;;15.67;15.03;;;20.10;59.10;;;;;;4972022;28;20451;-67
2024/03/14 11:43:22;;;;;;;15.97;15.47;;;20.10;59.10;;;;;;4971961;28;21004;-67
2024/03/14 11:45:58;;;;;;;16.13;15.63;;;20.10;59.10;;;;;;4971884;28;20455;-67
2024/03/14 11:48:24;;;;;;;15.87;15.37;;;20.10;59.00;;;;;;4971249;28;20483;-67
2024/03/14 11:50:52;;;;;;;16.30;15.63;;;20.10;59.00;;;;;;4971906;28;20455;-67
2024/03/14 11:53:20;;;;;;;15.80;15.20;;;20.10;59.00;;;;;;4971397;28;20225;-67
2024/03/14 11:55:48;;;;;;;15.87;15.27;;;20.10;58.90;;;;;;4971246;28;20448;-67
2024/03/14 11:58:15;;;;;;;15.27;14.87;;;20.10;58.90;;;;;;4971892;28;20980;-67
2024/03/14 12:00:42;;;;;;;15.10;14.60;;;20.10;58.90;;;;;;4971558;28;20926;-67
2024/03/14 12:03:11;;;;;;;15.50;14.90;;;20.10;58.80;;;;;;4971611;28;20456;-67
2024/03/14 12:05:42;;;;;;;15.00;14.60;;;20.10;58.80;;;;;;4970732;28;20441;-67
2024/03/14 12:08:10;;;;;;;16.57;15.87;;;20.20;58.90;;;;;;4971193;28;20538;-66
2024/03/14 12:10:38;;;;;;;14.80;14.40;;;20.20;58.90;;;;;;4971325;28;20850;-67
2024/03/14 12:13:05;;;;;;;15.53;14.80;;;20.20;58.90;;;;;;4971488;28;20484;-67
2024/03/14 12:15:35;;;;;;;15.13;14.67;;;20.20;58.80;;;;;;4971031;28;20813;-67
2024/03/14 12:18:02;;;;;;;15.60;15.10;;;20.20;58.80;;;;;;4970935;28;20476;-67
2024/03/14 12:20:29;;;;;;;15.77;15.17;;;20.20;58.80;;;;;;4971108;28;20505;-67
2024/03/14 12:22:56;;;;;;;15.23;14.70;;;20.20;58.70;;;;;;4971096;28;20468;-67
2024/03/14 12:25:24;;;;;;;15.73;15.23;;;20.20;58.70;;;;;;4970710;28;20432;-67
2024/03/14 12:27:51;;;;;;;15.73;15.20;;;20.20;58.70;;;;;;4971026;28;20490;-67
2024/03/14 12:30:20;;;;;;;16.13;15.63;;;20.20;58.70;;;;;;4970896;28;21027;-67